sensor_id;sensor_type;location;lat;lon;timestamp;pressure;altitude;pressure_sealevel;temperature;humidity
54306;BME280;66145;45.188;5.712;2023-07-24T00:02:13;98578.16;;;23.59;57.47
54306;BME280;66145;45.188;5.712;2023-07-24T00:04:39;98581.75;;;23.59;57.37
54306;BME280;66145;45.188;5.712;2023-07-24T00:07:04;98584.63;;;23.66;57.35
54306;BME280;66145;45.188;5.712;2023-07-24T00:09:30;98568.72;;;23.60;57.52
54306;BME280;66145;45.188;5.712;2023-07-24T00:11:55;98574.25;;;23.60;57.39
54306;BME280;66145;45.188;5.712;2023-07-24T00:14:20;98579.53;;;23.68;57.60
54306;BME280;66145;45.188;5.712;2023-07-24T00:16:46;98570.81;;;23.66;57.68
54306;BME280;66145;45.188;5.712;2023-07-24T00:19:11;98560.97;;;23.65;57.38
54306;BME280;66145;45.188;5.712;2023-07-24T00:21:36;98544.63;;;23.57;57.49
54306;BME280;66145;45.188;5.712;2023-07-24T00:24:02;98558.63;;;23.67;57.53
54306;BME280;66145;45.188;5.712;2023-07-24T00:26:27;98542.38;;;23.62;57.57
54306;BME280;66145;45.188;5.712;2023-07-24T00:28:52;98545.25;;;23.69;57.39
54306;BME280;66145;45.188;5.712;2023-07-24T00:31:18;98529.78;;;23.65;57.46
54306;BME280;66145;45.188;5.712;2023-07-24T00:33:43;98532.19;;;23.66;57.50
54306;BME280;66145;45.188;5.712;2023-07-24T00:36:08;98525.00;;;23.62;57.49
54306;BME280;66145;45.188;5.712;2023-07-24T00:38:34;98516.81;;;23.65;57.57
54306;BME280;66145;45.188;5.712;2023-07-24T00:40:59;98518.03;;;23.68;57.72
54306;BME280;66145;45.188;5.712;2023-07-24T00:43:24;98519.56;;;23.65;57.52
54306;BME280;66145;45.188;5.712;2023-07-24T00:45:50;98505.75;;;23.65;57.67
54306;BME280;66145;45.188;5.712;2023-07-24T00:48:15;98495.34;;;23.59;57.51
54306;BME280;66145;45.188;5.712;2023-07-24T00:50:42;98496.53;;;23.58;57.55
54306;BME280;66145;45.188;5.712;2023-07-24T00:53:08;98492.31;;;23.64;57.52
54306;BME280;66145;45.188;5.712;2023-07-24T00:55:34;98480.34;;;23.56;57.64
54306;BME280;66145;45.188;5.712;2023-07-24T00:58:00;98496.72;;;23.68;57.50
54306;BME280;66145;45.188;5.712;2023-07-24T01:00:25;98480.81;;;23.62;57.54
54306;BME280;66145;45.188;5.712;2023-07-24T01:02:51;98465.00;;;23.59;57.69
54306;BME280;66145;45.188;5.712;2023-07-24T01:05:17;98470.28;;;23.67;57.43
54306;BME280;66145;45.188;5.712;2023-07-24T01:07:43;98463.00;;;23.56;57.44
54306;BME280;66145;45.188;5.712;2023-07-24T01:10:11;98488.44;;;23.68;57.43
54306;BME280;66145;45.188;5.712;2023-07-24T01:12:59;98480.59;;;23.70;57.49
54306;BME280;66145;45.188;5.712;2023-07-24T01:15:32;98483.31;;;23.67;57.41
54306;BME280;66145;45.188;5.712;2023-07-24T01:18:06;98490.41;;;23.68;57.65
54306;BME280;66145;45.188;5.712;2023-07-24T01:20:35;98462.66;;;23.61;57.50
54306;BME280;66145;45.188;5.712;2023-07-24T01:24:14;98467.59;;;23.71;57.59
54306;BME280;66145;45.188;5.712;2023-07-24T01:26:06;98466.00;;;23.70;57.54
54306;BME280;66145;45.188;5.712;2023-07-24T01:28:33;98417.81;;;23.44;57.65
54306;BME280;66145;45.188;5.712;2023-07-24T01:30:58;98452.19;;;23.70;57.81
54306;BME280;66145;45.188;5.712;2023-07-24T01:33:23;98436.44;;;23.70;57.67
54306;BME280;66145;45.188;5.712;2023-07-24T01:35:57;98428.97;;;23.71;57.65
54306;BME280;66145;45.188;5.712;2023-07-24T01:38:24;98400.00;;;23.61;57.75
54306;BME280;66145;45.188;5.712;2023-07-24T01:40:54;98419.44;;;23.68;57.70
54306;BME280;66145;45.188;5.712;2023-07-24T01:43:19;98447.91;;;23.73;57.66
54306;BME280;66145;45.188;5.712;2023-07-24T01:45:45;98456.19;;;23.73;57.65
54306;BME280;66145;45.188;5.712;2023-07-24T01:48:10;98439.19;;;23.70;57.76
54306;BME280;66145;45.188;5.712;2023-07-24T01:50:35;98449.44;;;23.70;57.75
54306;BME280;66145;45.188;5.712;2023-07-24T01:53:01;98448.72;;;23.73;57.86
54306;BME280;66145;45.188;5.712;2023-07-24T01:55:26;98490.03;;;23.69;57.89
54306;BME280;66145;45.188;5.712;2023-07-24T01:57:52;98571.34;;;23.72;57.68
54306;BME280;66145;45.188;5.712;2023-07-24T02:00:17;98653.31;;;23.68;57.98
54306;BME280;66145;45.188;5.712;2023-07-24T02:02:42;98688.25;;;23.80;57.82
54306;BME280;66145;45.188;5.712;2023-07-24T02:05:08;98641.44;;;23.67;58.00
54306;BME280;66145;45.188;5.712;2023-07-24T02:07:33;98681.78;;;23.72;58.36
54306;BME280;66145;45.188;5.712;2023-07-24T02:09:58;98759.25;;;23.79;58.09
54306;BME280;66145;45.188;5.712;2023-07-24T02:12:24;98771.00;;;23.76;58.05
54306;BME280;66145;45.188;5.712;2023-07-24T02:14:49;98753.56;;;23.72;58.06
54306;BME280;66145;45.188;5.712;2023-07-24T02:17:19;98695.50;;;23.68;58.12
54306;BME280;66145;45.188;5.712;2023-07-24T02:19:45;98468.38;;;23.72;58.24
54306;BME280;66145;45.188;5.712;2023-07-24T02:22:11;98313.03;;;23.48;58.13
54306;BME280;66145;45.188;5.712;2023-07-24T02:24:36;98413.84;;;23.65;58.50
54306;BME280;66145;45.188;5.712;2023-07-24T02:27:02;98505.91;;;23.53;58.14
54306;BME280;66145;45.188;5.712;2023-07-24T02:29:27;98553.84;;;23.64;58.08
54306;BME280;66145;45.188;5.712;2023-07-24T02:31:54;98571.84;;;23.58;58.05
54306;BME280;66145;45.188;5.712;2023-07-24T02:34:19;98604.56;;;23.76;58.10
54306;BME280;66145;45.188;5.712;2023-07-24T02:36:49;98580.50;;;23.57;57.97
54306;BME280;66145;45.188;5.712;2023-07-24T02:39:15;98632.94;;;23.76;57.99
54306;BME280;66145;45.188;5.712;2023-07-24T02:41:40;98603.44;;;23.61;57.98
54306;BME280;66145;45.188;5.712;2023-07-24T02:44:05;98615.81;;;23.67;58.06
54306;BME280;66145;45.188;5.712;2023-07-24T02:46:31;98620.31;;;23.75;58.04
54306;BME280;66145;45.188;5.712;2023-07-24T02:48:56;98614.78;;;23.75;58.01
54306;BME280;66145;45.188;5.712;2023-07-24T02:51:21;98617.47;;;23.72;58.24
54306;BME280;66145;45.188;5.712;2023-07-24T02:53:46;98612.00;;;23.75;57.94
54306;BME280;66145;45.188;5.712;2023-07-24T02:56:12;98604.56;;;23.76;58.17
54306;BME280;66145;45.188;5.712;2023-07-24T02:58:37;98586.88;;;23.61;57.97
54306;BME280;66145;45.188;5.712;2023-07-24T03:01:06;98576.34;;;23.66;57.90
54306;BME280;66145;45.188;5.712;2023-07-24T03:03:33;98577.16;;;23.67;57.96
54306;BME280;66145;45.188;5.712;2023-07-24T03:05:58;98560.44;;;23.60;58.22
54306;BME280;66145;45.188;5.712;2023-07-24T03:08:24;98568.50;;;23.68;58.13
54306;BME280;66145;45.188;5.712;2023-07-24T03:10:49;98582.47;;;23.76;58.13
54306;BME280;66145;45.188;5.712;2023-07-24T03:13:14;98556.38;;;23.73;58.25
54306;BME280;66145;45.188;5.712;2023-07-24T03:15:40;98562.31;;;23.75;58.07
54306;BME280;66145;45.188;5.712;2023-07-24T03:18:05;98549.69;;;23.74;58.09
54306;BME280;66145;45.188;5.712;2023-07-24T03:20:30;98537.47;;;23.75;58.12
54306;BME280;66145;45.188;5.712;2023-07-24T03:22:56;98539.44;;;23.75;58.17
54306;BME280;66145;45.188;5.712;2023-07-24T03:25:21;98531.41;;;23.66;58.19
54306;BME280;66145;45.188;5.712;2023-07-24T03:27:46;98544.97;;;23.75;58.17
54306;BME280;66145;45.188;5.712;2023-07-24T03:30:11;98535.53;;;23.56;58.11
54306;BME280;66145;45.188;5.712;2023-07-24T03:32:37;98535.25;;;23.61;58.17
54306;BME280;66145;45.188;5.712;2023-07-24T03:35:04;98546.94;;;23.74;58.26
54306;BME280;66145;45.188;5.712;2023-07-24T03:37:30;98576.50;;;23.74;58.16
54306;BME280;66145;45.188;5.712;2023-07-24T03:39:56;98567.84;;;23.75;58.28
54306;BME280;66145;45.188;5.712;2023-07-24T03:42:29;98543.66;;;23.68;58.29
54306;BME280;66145;45.188;5.712;2023-07-24T03:44:55;98589.94;;;23.75;58.32
54306;BME280;66145;45.188;5.712;2023-07-24T03:47:20;98590.38;;;23.77;58.12
54306;BME280;66145;45.188;5.712;2023-07-24T03:49:46;98550.44;;;23.71;58.34
54306;BME280;66145;45.188;5.712;2023-07-24T03:52:11;98560.97;;;23.65;58.21
54306;BME280;66145;45.188;5.712;2023-07-24T03:54:37;98571.69;;;23.70;58.30
54306;BME280;66145;45.188;5.712;2023-07-24T03:57:03;98545.47;;;23.61;58.30
54306;BME280;66145;45.188;5.712;2023-07-24T03:59:28;98548.00;;;23.69;58.30
54306;BME280;66145;45.188;5.712;2023-07-24T04:01:53;98538.13;;;23.68;58.43
54306;BME280;66145;45.188;5.712;2023-07-24T04:04:20;98519.47;;;23.62;58.21
54306;BME280;66145;45.188;5.712;2023-07-24T04:06:46;98509.69;;;23.64;58.47
54306;BME280;66145;45.188;5.712;2023-07-24T04:09:11;98477.91;;;23.74;58.55
54306;BME280;66145;45.188;5.712;2023-07-24T04:11:40;98404.34;;;23.62;58.19
54306;BME280;66145;45.188;5.712;2023-07-24T04:14:05;98408.47;;;23.72;58.41
54306;BME280;66145;45.188;5.712;2023-07-24T04:16:30;98482.25;;;23.75;58.42
54306;BME280;66145;45.188;5.712;2023-07-24T04:18:55;98576.06;;;23.72;58.36
54306;BME280;66145;45.188;5.712;2023-07-24T04:21:22;98595.44;;;23.75;58.28
54306;BME280;66145;45.188;5.712;2023-07-24T04:23:47;98627.06;;;23.78;58.36
54306;BME280;66145;45.188;5.712;2023-07-24T04:26:13;98638.91;;;23.78;58.76
54306;BME280;66145;45.188;5.712;2023-07-24T04:28:38;98559.22;;;23.77;58.27
54306;BME280;66145;45.188;5.712;2023-07-24T04:31:03;98558.41;;;23.76;58.55
54306;BME280;66145;45.188;5.712;2023-07-24T04:33:29;98586.66;;;23.69;58.65
54306;BME280;66145;45.188;5.712;2023-07-24T04:35:55;98604.59;;;23.79;58.38
54306;BME280;66145;45.188;5.712;2023-07-24T04:38:21;98608.84;;;23.73;58.49
54306;BME280;66145;45.188;5.712;2023-07-24T04:40:46;98633.75;;;23.77;58.41
54306;BME280;66145;45.188;5.712;2023-07-24T04:43:12;98623.38;;;23.70;58.66
54306;BME280;66145;45.188;5.712;2023-07-24T04:45:37;98635.34;;;23.78;58.67
54306;BME280;66145;45.188;5.712;2023-07-24T04:48:02;98655.03;;;23.76;58.47
54306;BME280;66145;45.188;5.712;2023-07-24T04:50:28;98657.28;;;23.70;58.53
54306;BME280;66145;45.188;5.712;2023-07-24T04:52:53;98677.44;;;23.71;58.45
54306;BME280;66145;45.188;5.712;2023-07-24T04:55:18;98658.16;;;23.75;58.61
54306;BME280;66145;45.188;5.712;2023-07-24T04:57:44;98673.06;;;23.70;58.62
54306;BME280;66145;45.188;5.712;2023-07-24T05:00:09;98663.69;;;23.75;58.49
54306;BME280;66145;45.188;5.712;2023-07-24T05:02:35;98748.69;;;23.65;58.38
54306;BME280;66145;45.188;5.712;2023-07-24T05:05:00;98778.69;;;23.67;58.35
54306;BME280;66145;45.188;5.712;2023-07-24T05:07:26;98757.38;;;23.67;58.65
54306;BME280;66145;45.188;5.712;2023-07-24T05:09:51;98757.50;;;23.71;58.45
54306;BME280;66145;45.188;5.712;2023-07-24T05:12:16;98773.88;;;23.64;58.56
54306;BME280;66145;45.188;5.712;2023-07-24T05:14:41;98762.56;;;23.69;58.64
54306;BME280;66145;45.188;5.712;2023-07-24T05:17:07;98774.56;;;23.77;58.33
54306;BME280;66145;45.188;5.712;2023-07-24T05:19:32;98818.56;;;23.69;58.72
54306;BME280;66145;45.188;5.712;2023-07-24T05:21:57;98859.47;;;23.80;58.66
54306;BME280;66145;45.188;5.712;2023-07-24T05:24:24;98806.91;;;23.76;58.66
54306;BME280;66145;45.188;5.712;2023-07-24T05:26:49;98808.16;;;23.79;58.63
54306;BME280;66145;45.188;5.712;2023-07-24T05:29:14;98813.94;;;23.74;58.57
54306;BME280;66145;45.188;5.712;2023-07-24T05:31:40;98787.22;;;23.78;58.54
54306;BME280;66145;45.188;5.712;2023-07-24T05:34:05;98752.31;;;23.69;58.60
54306;BME280;66145;45.188;5.712;2023-07-24T05:36:31;98766.22;;;23.73;58.54
54306;BME280;66145;45.188;5.712;2023-07-24T05:38:56;98741.78;;;23.75;58.68
54306;BME280;66145;45.188;5.712;2023-07-24T05:41:22;98738.31;;;23.78;58.57
54306;BME280;66145;45.188;5.712;2023-07-24T05:43:48;98723.91;;;23.69;58.74
54306;BME280;66145;45.188;5.712;2023-07-24T05:46:13;98753.25;;;23.58;58.60
54306;BME280;66145;45.188;5.712;2023-07-24T05:48:40;98859.72;;;23.75;58.59
54306;BME280;66145;45.188;5.712;2023-07-24T05:51:05;98783.94;;;23.72;58.61
54306;BME280;66145;45.188;5.712;2023-07-24T05:53:30;98765.47;;;23.76;58.78
54306;BME280;66145;45.188;5.712;2023-07-24T05:56:00;98640.94;;;23.62;58.57
54306;BME280;66145;45.188;5.712;2023-07-24T05:58:26;98670.66;;;23.68;58.76
54306;BME280;66145;45.188;5.712;2023-07-24T06:00:51;98696.31;;;23.69;58.67
54306;BME280;66145;45.188;5.712;2023-07-24T06:03:17;98707.88;;;23.75;58.73
54306;BME280;66145;45.188;5.712;2023-07-24T06:05:42;98653.72;;;23.50;58.63
54306;BME280;66145;45.188;5.712;2023-07-24T06:08:07;98675.97;;;23.77;58.65
54306;BME280;66145;45.188;5.712;2023-07-24T06:10:34;98677.44;;;23.71;58.70
54306;BME280;66145;45.188;5.712;2023-07-24T06:12:59;98672.91;;;23.63;58.70
54306;BME280;66145;45.188;5.712;2023-07-24T06:15:25;98676.78;;;23.78;58.64
54306;BME280;66145;45.188;5.712;2023-07-24T06:17:50;98637.19;;;23.70;58.67
54306;BME280;66145;45.188;5.712;2023-07-24T06:20:15;98605.47;;;23.64;58.70
54306;BME280;66145;45.188;5.712;2023-07-24T06:22:41;98651.09;;;23.77;58.67
54306;BME280;66145;45.188;5.712;2023-07-24T06:25:07;98662.53;;;23.76;58.79
54306;BME280;66145;45.188;5.712;2023-07-24T06:27:32;98628.91;;;23.70;58.88
54306;BME280;66145;45.188;5.712;2023-07-24T06:29:57;98631.00;;;23.77;58.74
54306;BME280;66145;45.188;5.712;2023-07-24T06:32:23;98625.41;;;23.73;58.81
54306;BME280;66145;45.188;5.712;2023-07-24T06:34:48;98617.97;;;23.77;58.86
54306;BME280;66145;45.188;5.712;2023-07-24T06:37:13;98620.69;;;23.74;58.94
54306;BME280;66145;45.188;5.712;2023-07-24T06:39:39;98634.09;;;23.75;58.77
54306;BME280;66145;45.188;5.712;2023-07-24T06:42:04;98640.50;;;23.79;58.67
54306;BME280;66145;45.188;5.712;2023-07-24T06:44:29;98608.31;;;23.67;58.76
54306;BME280;66145;45.188;5.712;2023-07-24T06:46:55;98610.06;;;23.76;58.92
54306;BME280;66145;45.188;5.712;2023-07-24T06:49:20;98614.44;;;23.77;58.80
54306;BME280;66145;45.188;5.712;2023-07-24T06:51:45;98601.28;;;23.70;58.91
54306;BME280;66145;45.188;5.712;2023-07-24T06:54:11;98614.72;;;23.72;58.88
54306;BME280;66145;45.188;5.712;2023-07-24T06:56:36;98613.22;;;23.74;58.80
54306;BME280;66145;45.188;5.712;2023-07-24T06:59:01;98612.31;;;23.70;58.67
54306;BME280;66145;45.188;5.712;2023-07-24T07:01:27;98628.69;;;23.79;58.77
54306;BME280;66145;45.188;5.712;2023-07-24T07:03:52;98605.22;;;23.69;59.00
54306;BME280;66145;45.188;5.712;2023-07-24T07:06:17;98614.28;;;23.69;58.83
54306;BME280;66145;45.188;5.712;2023-07-24T07:08:43;98606.38;;;23.68;58.98
54306;BME280;66145;45.188;5.712;2023-07-24T07:11:08;98585.66;;;23.58;58.97
54306;BME280;66145;45.188;5.712;2023-07-24T07:13:34;98620.31;;;23.75;58.96
54306;BME280;66145;45.188;5.712;2023-07-24T07:15:59;98609.56;;;23.70;59.09
54306;BME280;66145;45.188;5.712;2023-07-24T07:18:25;98617.19;;;23.77;58.95
54306;BME280;66145;45.188;5.712;2023-07-24T07:20:51;98618.78;;;23.78;58.86
54306;BME280;66145;45.188;5.712;2023-07-24T07:23:17;98614.28;;;23.69;58.83
54306;BME280;66145;45.188;5.712;2023-07-24T07:25:43;98638.91;;;23.78;58.59
54306;BME280;66145;45.188;5.712;2023-07-24T07:28:11;98638.84;;;23.75;58.90
54306;BME280;66145;45.188;5.712;2023-07-24T07:30:36;98621.69;;;23.65;58.82
54306;BME280;66145;45.188;5.712;2023-07-24T07:33:01;98620.22;;;23.72;59.01
54306;BME280;66145;45.188;5.712;2023-07-24T07:35:27;98629.84;;;23.78;58.92
54306;BME280;66145;45.188;5.712;2023-07-24T07:37:52;98629.84;;;23.78;58.99
54306;BME280;66145;45.188;5.712;2023-07-24T07:40:18;98613.63;;;23.76;58.93
54306;BME280;66145;45.188;5.712;2023-07-24T07:42:43;98585.50;;;23.70;58.94
54306;BME280;66145;45.188;5.712;2023-07-24T07:45:10;98594.72;;;23.78;58.92
54306;BME280;66145;45.188;5.712;2023-07-24T07:47:35;98595.03;;;23.73;59.09
54306;BME280;66145;45.188;5.712;2023-07-24T07:50:01;98619.94;;;23.77;59.14
54306;BME280;66145;45.188;5.712;2023-07-24T07:52:26;98606.81;;;23.70;59.04
54306;BME280;66145;45.188;5.712;2023-07-24T07:54:51;98592.63;;;23.72;58.93
54306;BME280;66145;45.188;5.712;2023-07-24T07:57:17;98589.59;;;23.77;59.31
54306;BME280;66145;45.188;5.712;2023-07-24T07:59:42;98585.22;;;23.76;59.24
54306;BME280;66145;45.188;5.712;2023-07-24T08:02:07;98575.28;;;23.71;58.89
54306;BME280;66145;45.188;5.712;2023-07-24T08:04:33;98572.94;;;23.73;59.17
54306;BME280;66145;45.188;5.712;2023-07-24T08:06:58;98582.09;;;23.77;59.54
54306;BME280;66145;45.188;5.712;2023-07-24T08:09:24;98570.09;;;23.69;59.30
54306;BME280;66145;45.188;5.712;2023-07-24T08:11:50;98585.66;;;23.78;59.02
54306;BME280;66145;45.188;5.712;2023-07-24T08:14:16;98573.81;;;23.77;59.38
54306;BME280;66145;45.188;5.712;2023-07-24T08:16:41;98550.56;;;23.78;59.36
54306;BME280;66145;45.188;5.712;2023-07-24T08:19:07;98537.47;;;23.75;59.23
54306;BME280;66145;45.188;5.712;2023-07-24T08:21:32;98548.59;;;23.79;59.15
54306;BME280;66145;45.188;5.712;2023-07-24T08:23:57;98517.16;;;23.64;59.10
54306;BME280;66145;45.188;5.712;2023-07-24T08:26:23;98522.31;;;23.65;59.18
54306;BME280;66145;45.188;5.712;2023-07-24T08:28:51;98542.66;;;23.77;59.19
54306;BME280;66145;45.188;5.712;2023-07-24T08:31:16;98536.41;;;23.80;59.17
54306;BME280;66145;45.188;5.712;2023-07-24T08:33:41;98540.31;;;23.79;59.30
54306;BME280;66145;45.188;5.712;2023-07-24T08:36:07;98540.16;;;23.72;59.24
54306;BME280;66145;45.188;5.712;2023-07-24T08:38:34;98549.31;;;23.76;59.23
54306;BME280;66145;45.188;5.712;2023-07-24T08:41:01;98530.94;;;23.64;59.44
54306;BME280;66145;45.188;5.712;2023-07-24T08:43:28;98525.09;;;23.65;59.23
54306;BME280;66145;45.188;5.712;2023-07-24T08:45:54;98541.78;;;23.73;59.37
54306;BME280;66145;45.188;5.712;2023-07-24T08:48:20;98565.41;;;23.70;59.23
54306;BME280;66145;45.188;5.712;2023-07-24T08:50:47;98570.91;;;23.70;59.38
54306;BME280;66145;45.188;5.712;2023-07-24T08:53:14;98554.84;;;23.76;59.31
54306;BME280;66145;45.188;5.712;2023-07-24T08:55:40;98542.66;;;23.77;59.65
54306;BME280;66145;45.188;5.712;2023-07-24T08:58:06;98549.31;;;23.76;59.46
54306;BME280;66145;45.188;5.712;2023-07-24T09:00:32;98537.06;;;23.73;59.61
54306;BME280;66145;45.188;5.712;2023-07-24T09:02:57;98520.84;;;23.72;59.28
54306;BME280;66145;45.188;5.712;2023-07-24T09:05:23;98524.03;;;23.74;59.25
54306;BME280;66145;45.188;5.712;2023-07-24T09:07:49;98527.25;;;23.76;59.56
54306;BME280;66145;45.188;5.712;2023-07-24T09:10:14;98526.75;;;23.70;59.48
54306;BME280;66145;45.188;5.712;2023-07-24T09:12:41;98540.66;;;23.77;59.52
54306;BME280;66145;45.188;5.712;2023-07-24T09:15:07;98539.88;;;23.77;59.44
54306;BME280;66145;45.188;5.712;2023-07-24T09:17:33;98548.22;;;23.80;59.37
54306;BME280;66145;45.188;5.712;2023-07-24T09:19:59;98534.31;;;23.73;59.43
54306;BME280;66145;45.188;5.712;2023-07-24T09:22:27;98525.00;;;23.62;59.57
54306;BME280;66145;45.188;5.712;2023-07-24T09:24:56;98568.38;;;23.81;59.27
54306;BME280;66145;45.188;5.712;2023-07-24T09:27:27;98566.34;;;23.78;59.40
54306;BME280;66145;45.188;5.712;2023-07-24T09:29:53;98585.72;;;23.81;59.50
54306;BME280;66145;45.188;5.712;2023-07-24T09:32:23;98574.47;;;23.70;59.29
54306;BME280;66145;45.188;5.712;2023-07-24T09:34:49;98587.91;;;23.72;59.39
54306;BME280;66145;45.188;5.712;2023-07-24T09:37:33;98588.41;;;23.78;59.51
54306;BME280;66145;45.188;5.712;2023-07-24T09:39:59;98582.09;;;23.77;59.51
54306;BME280;66145;45.188;5.712;2023-07-24T09:42:29;98572.63;;;23.78;59.45
54306;BME280;66145;45.188;5.712;2023-07-24T09:44:55;98560.66;;;23.70;59.64
54306;BME280;66145;45.188;5.712;2023-07-24T09:47:20;98552.38;;;23.70;59.90
54306;BME280;66145;45.188;5.712;2023-07-24T09:49:46;98549.28;;;23.72;59.44
54306;BME280;66145;45.188;5.712;2023-07-24T09:52:13;98555.72;;;23.80;59.65
54306;BME280;66145;45.188;5.712;2023-07-24T09:54:54;98533.94;;;23.75;59.65
54306;BME280;66145;45.188;5.712;2023-07-24T09:57:21;98546.28;;;23.81;59.52
54306;BME280;66145;45.188;5.712;2023-07-24T09:59:48;98528.34;;;23.71;59.55
54306;BME280;66145;45.188;5.712;2023-07-24T10:02:13;98539.06;;;23.76;59.70
54306;BME280;66145;45.188;5.712;2023-07-24T10:04:40;98543.75;;;23.72;59.71
54306;BME280;66145;45.188;5.712;2023-07-24T10:07:06;98542.16;;;23.71;59.53
54306;BME280;66145;45.188;5.712;2023-07-24T10:09:33;98531.41;;;23.66;59.47
54306;BME280;66145;45.188;5.712;2023-07-24T10:11:58;98565.97;;;23.79;59.55
54306;BME280;66145;45.188;5.712;2023-07-24T10:14:26;98542.88;;;23.68;59.42
54306;BME280;66145;45.188;5.712;2023-07-24T10:16:52;98554.13;;;23.79;59.70
54306;BME280;66145;45.188;5.712;2023-07-24T10:19:21;98541.34;;;23.70;59.41
54306;BME280;66145;45.188;5.712;2023-07-24T10:21:50;98554.91;;;23.79;59.81
54306;BME280;66145;45.188;5.712;2023-07-24T10:24:16;98545.34;;;23.73;59.87
54306;BME280;66145;45.188;5.712;2023-07-24T10:26:42;98556.44;;;23.77;59.47
54306;BME280;66145;45.188;5.712;2023-07-24T10:29:09;98549.28;;;23.72;59.76
54306;BME280;66145;45.188;5.712;2023-07-24T10:31:34;98552.47;;;23.74;59.45
54306;BME280;66145;45.188;5.712;2023-07-24T10:34:07;98558.84;;;23.78;59.43
54306;BME280;66145;45.188;5.712;2023-07-24T10:36:34;98545.84;;;23.79;59.48
54306;BME280;66145;45.188;5.712;2023-07-24T10:39:00;98519.47;;;23.62;59.57
54306;BME280;66145;45.188;5.712;2023-07-24T10:41:36;98532.69;;;23.72;59.42
54306;BME280;66145;45.188;5.712;2023-07-24T10:44:02;98543.44;;;23.77;59.55
54306;BME280;66145;45.188;5.712;2023-07-24T10:46:39;98531.53;;;23.73;59.38
54306;BME280;66145;45.188;5.712;2023-07-24T10:49:05;98527.63;;;23.74;59.33
54306;BME280;66145;45.188;5.712;2023-07-24T10:51:31;98522.81;;;23.71;59.61
54306;BME280;66145;45.188;5.712;2023-07-24T10:53:59;98529.63;;;23.77;59.49
54306;BME280;66145;45.188;5.712;2023-07-24T10:56:25;98516.91;;;23.73;59.30
54306;BME280;66145;45.188;5.712;2023-07-24T10:58:50;98513.50;;;23.79;59.60
54306;BME280;66145;45.188;5.712;2023-07-24T11:01:17;98497.16;;;23.70;59.41
54306;BME280;66145;45.188;5.712;2023-07-24T11:03:43;98503.25;;;23.80;59.40
54306;BME280;66145;45.188;5.712;2023-07-24T11:06:13;98504.47;;;23.82;59.32
54306;BME280;66145;45.188;5.712;2023-07-24T11:08:39;98492.66;;;23.82;59.38
54306;BME280;66145;45.188;5.712;2023-07-24T11:11:05;98457.91;;;23.58;59.42
54306;BME280;66145;45.188;5.712;2023-07-24T11:13:31;98485.00;;;23.75;59.42
54306;BME280;66145;45.188;5.712;2023-07-24T11:16:04;98485.09;;;23.79;59.60
54306;BME280;66145;45.188;5.712;2023-07-24T11:18:30;98472.03;;;23.76;59.56
54306;BME280;66145;45.188;5.712;2023-07-24T11:20:56;98468.88;;;23.77;59.47
54306;BME280;66145;45.188;5.712;2023-07-24T11:23:23;98476.81;;;23.79;59.53
54306;BME280;66145;45.188;5.712;2023-07-24T11:25:52;98483.94;;;23.80;59.46
54306;BME280;66145;45.188;5.712;2023-07-24T11:28:18;98448.53;;;23.62;59.39
54306;BME280;66145;45.188;5.712;2023-07-24T11:30:43;98476.88;;;23.82;59.42
54306;BME280;66145;45.188;5.712;2023-07-24T11:33:10;98468.97;;;23.81;59.38
54306;BME280;66145;45.188;5.712;2023-07-24T11:35:36;98466.56;;;23.79;59.48
54306;BME280;66145;45.188;5.712;2023-07-24T11:38:05;98465.03;;;23.82;59.27
54306;BME280;66145;45.188;5.712;2023-07-24T11:43:02;98447.66;;;23.81;59.48
54306;BME280;66145;45.188;5.712;2023-07-24T11:45:39;98442.94;;;23.82;59.48
54306;BME280;66145;45.188;5.712;2023-07-24T11:48:09;98430.72;;;23.83;59.44
54306;BME280;66145;45.188;5.712;2023-07-24T11:50:42;98426.78;;;23.84;59.55
54306;BME280;66145;45.188;5.712;2023-07-24T11:53:27;98408.91;;;23.74;59.40
54306;BME280;66145;45.188;5.712;2023-07-24T11:55:55;98397.44;;;23.72;59.37
54306;BME280;66145;45.188;5.712;2023-07-24T11:58:22;98415.75;;;23.84;59.39
54306;BME280;66145;45.188;5.712;2023-07-24T12:00:48;98404.69;;;23.84;59.37
54306;BME280;66145;45.188;5.712;2023-07-24T12:03:19;98396.66;;;23.75;59.44
54306;BME280;66145;45.188;5.712;2023-07-24T12:05:44;98389.97;;;23.76;59.51
54306;BME280;66145;45.188;5.712;2023-07-24T12:08:10;98398.78;;;23.82;59.52
54306;BME280;66145;45.188;5.712;2023-07-24T12:10:40;98370.25;;;23.74;59.46
54306;BME280;66145;45.188;5.712;2023-07-24T12:13:06;98379.84;;;23.84;59.22
54306;BME280;66145;45.188;5.712;2023-07-24T12:15:32;98368.69;;;23.77;59.30
54306;BME280;66145;45.188;5.712;2023-07-24T12:18:02;98362.00;;;23.78;59.34
54306;BME280;66145;45.188;5.712;2023-07-24T12:20:27;98371.94;;;23.82;59.24
54306;BME280;66145;45.188;5.712;2023-07-24T12:22:53;98352.13;;;23.77;59.26
54306;BME280;66145;45.188;5.712;2023-07-24T12:25:19;98361.34;;;23.84;59.46
54306;BME280;66145;45.188;5.712;2023-07-24T12:27:45;98358.56;;;23.84;59.46
54306;BME280;66145;45.188;5.712;2023-07-24T12:30:10;98340.41;;;23.83;59.50
54306;BME280;66145;45.188;5.712;2023-07-24T12:32:36;98334.06;;;23.83;59.57
54306;BME280;66145;45.188;5.712;2023-07-24T12:35:01;98314.53;;;23.68;59.48
54306;BME280;66145;45.188;5.712;2023-07-24T12:37:26;98308.22;;;23.68;59.33
54306;BME280;66145;45.188;5.712;2023-07-24T12:39:52;98312.66;;;23.76;59.39
54306;BME280;66145;45.188;5.712;2023-07-24T12:42:17;98330.97;;;23.84;59.02
54306;BME280;66145;45.188;5.712;2023-07-24T12:44:43;98341.19;;;23.84;59.32
54306;BME280;66145;45.188;5.712;2023-07-24T12:47:09;98348.31;;;23.85;59.39
54306;BME280;66145;45.188;5.712;2023-07-24T12:49:35;98336.44;;;23.81;59.25
54306;BME280;66145;45.188;5.712;2023-07-24T12:52:00;98332.13;;;23.83;59.30
54306;BME280;66145;45.188;5.712;2023-07-24T12:54:25;98313.63;;;23.61;59.30
54306;BME280;66145;45.188;5.712;2023-07-24T12:56:51;98350.28;;;23.84;59.33
54306;BME280;66145;45.188;5.712;2023-07-24T12:59:17;98329.63;;;23.75;59.39